WetterOnline ( https://www.wetteronline.ch )

Wetter aktuell Ueckermünde

Aktuelles Wetter: Ueckermünde (7m)

6-stündlich | Neueste Meldungen
Ortszeit Temperatur Wetter
Do, 01.10. 2:00 13.2° C leicht bewölkt
Mi, 30.09. 20:00 15.7° C wolkenlos
Mi, 30.09. 14:00 17.7° C wolkenlos
Mi, 30.09. 8:00 7.6° C Nebel
Mi, 30.09. 2:00 11.1° C Nebel
Di, 29.09. 20:00 14.4° C fast wolkenlos
Di, 29.09. 14:00 16.7° C leicht bewölkt
Di, 29.09. 8:00 9.5° C bedeckt
Ortszeit Temperatur Wetter
Do, 01.10. 6:30 8.7° C leicht bewölkt
Do, 01.10. 6:20 8.7° C leicht bewölkt
Do, 01.10. 6:10 9.6° C wolkig
Do, 01.10. 6:00 13.1° C bewölkt
Do, 01.10. 5:50 13.1° C bewölkt
Do, 01.10. 5:40 13.0° C bewölkt
Do, 01.10. 5:30 12.4° C wolkig
Do, 01.10. 5:00 10.5° C leicht bewölkt
Ortszeit Relative Feuchte Sichtweite
Do, 01.10. 2:00 91% 45 km
Mi, 30.09. 20:00 92% 50 km
Mi, 30.09. 14:00 71% 27 km
Mi, 30.09. 8:00 100% 0.3 km
Mi, 30.09. 2:00 97% 0.2 km
Di, 29.09. 20:00 88% 50 km
Di, 29.09. 14:00 71% 55 km
Di, 29.09. 8:00 98% 28 km
Ortszeit Relative Feuchte Sichtweite
Do, 01.10. 6:30 93% 28 km
Do, 01.10. 6:20 93% -
Do, 01.10. 6:10 89% -
Do, 01.10. 6:00 92% 60 km
Do, 01.10. 5:50 92% -
Do, 01.10. 5:40 94% -
Do, 01.10. 5:30 95% 65 km
Do, 01.10. 5:00 99% 50 km
Ortszeit Niederschlagsmenge Niederschlagsart
Do, 01.10. 2:00 0.0 l/m2 in 6 Std. -
Mi, 30.09. 20:00 0.0 l/m2 in 12 Std. -
Mi, 30.09. 14:00 0.0 l/m2 in 6 Std. -
Mi, 30.09. 8:00 0.0 l/m2 in 12 Std. -
Mi, 30.09. 2:00 0.0 l/m2 in 6 Std. -
Di, 29.09. 20:00 0.0 l/m2 in 12 Std. -
Di, 29.09. 14:00 0.0 l/m2 in 6 Std. -
Di, 29.09. 8:00 0.0 l/m2 in 12 Std. -
Ortszeit Niederschlagsmenge Niederschlagsart
Do, 01.10. 6:30 0.0 l/m2 in 1 Std. -
Do, 01.10. 6:20 keine Meldung -
Do, 01.10. 6:10 keine Meldung -
Do, 01.10. 6:00 0.0 l/m2 in 1 Std. -
Do, 01.10. 5:50 keine Meldung -
Do, 01.10. 5:40 keine Meldung -
Do, 01.10. 5:30 0.0 l/m2 in 1 Std. -
Do, 01.10. 5:00 0.0 l/m2 in 1 Std. -
Ortszeit Stärke Spitze Richtung
km/h Bft. km/h Grad Sektor
Do, 01.10. 2:00 7 2 25 100° O
Mi, 30.09. 20:00 7 2 14 70° O
Mi, 30.09. 14:00 7 2 18 50° NO
Mi, 30.09. 8:00 4 1 7 210° SW
Mi, 30.09. 2:00 4 1 14 260° W
Di, 29.09. 20:00 7 2 20 50° NO
Di, 29.09. 14:00 7 2 14 40° NO
Di, 29.09. 8:00 4 1 7 210° SW
Ortszeit Stärke Spitze Richtung
km/h Bft. km/h Grad Sektor
Do, 01.10. 6:30 4 1 11 50° NO
Do, 01.10. 6:20 4 1 - 50° NO
Do, 01.10. 6:10 6 1 - 60° NO
Do, 01.10. 6:00 7 2 14 60° NO
Do, 01.10. 5:50 7 2 - 60° NO
Do, 01.10. 5:40 7 2 - 60° NO
Do, 01.10. 5:30 7 2 13 60° NO
Do, 01.10. 5:00 7 2 11 60° NO
Ortszeit Untergrenze Bedeckung Gattung
total tief tief mittel hoch
Do, 01.10. 2:00 4500 m 3/8 3/8 - - -
Mi, 30.09. 20:00 - 0/8 0/8 - - -
Mi, 30.09. 14:00 - 0/8 0/8 - - -
Mi, 30.09. 8:00 <30 m 8/8 0/8 - - -
Mi, 30.09. 2:00 2700 m 7/8 7/8 - - -
Di, 29.09. 20:00 2700 m 0/8 0/8 - - -
Di, 29.09. 14:00 3600 m 8/8 1/8 - - -
Di, 29.09. 8:00 1800 m 8/8 8/8 - - -
Ortszeit Bedeckungsgrad in Achtel und Wolkenuntergrenze
Do, 01.10. 6:30 3(510m) 4(660m)
Do, 01.10. 6:20 3(510m) 4(660m)
Do, 01.10. 6:10 6(510m)
Do, 01.10. 6:00 7(510m)
Do, 01.10. 5:50 7(510m)
Do, 01.10. 5:40 7(510m) 7(10500m)
Do, 01.10. 5:30 1(540m) 7(10500m)
Do, 01.10. 5:00 3(10500m)
Ortszeit Luftdruck NN (hPa) Tendenz (hPa in 3 Std.)
Do, 01.10. 2:00 1014 - 1,3
Mi, 30.09. 20:00 1015 - 0,6
Mi, 30.09. 14:00 1017 - 0,7
Mi, 30.09. 8:00 1017 0,0
Mi, 30.09. 2:00 1017 - 0,5
Di, 29.09. 20:00 1018 + 1,1
Di, 29.09. 14:00 1017 0,0
Di, 29.09. 8:00 1016 + 1,0
Ortszeit Luftdruck NN (hPa) Tendenz (hPa in 3 Std.)
Do, 01.10. 6:30 1011 - 1,6
Do, 01.10. 6:20 1011 keine Meldung
Do, 01.10. 6:10 1011 keine Meldung
Do, 01.10. 6:00 1011 - 1,8
Do, 01.10. 5:50 1011 keine Meldung
Do, 01.10. 5:40 1011 keine Meldung
Do, 01.10. 5:30 1011 - 1,9
Do, 01.10. 5:00 1012 - 2,1
Ortszeit Schneehöhe (cm)
Do, 01.10. 2:00 -
Mi, 30.09. 20:00 -
Mi, 30.09. 14:00 -
Mi, 30.09. 8:00 -
Mi, 30.09. 2:00 -
Di, 29.09. 20:00 -
Di, 29.09. 14:00 -
Di, 29.09. 8:00 -
Ortszeit Schneehöhe (cm)
Do, 01.10. 6:30 -
Do, 01.10. 6:20 -
Do, 01.10. 6:10 -
Do, 01.10. 6:00 -
Do, 01.10. 5:50 -
Do, 01.10. 5:40 -
Do, 01.10. 5:30 -
Do, 01.10. 5:00 -
Link zu dieser Seite / Seite empfehlen

Das Wetter in ...